Time;durP1;ratioP1;P1;durP2;ratioP2;P2;SDS_P1;SDS_P2;PMS_P1;PMS_P2;Temp;Humidity;BMP_temperature;BMP_pressure;BME280_temperature;BME280_humidity;BME280_pressure;Samples;Min_cycle;Max_cycle;Signal;HPM_P1;HPM_P2
2021/11/10 00:00:22;;;;;;;15.13;8.27;;;11.30;99.90;;;;;;2094644;28;20048;-71
2021/11/10 00:01:23;;;;;;;11.70;8.20;;;11.30;99.90;;;;;;2095278;28;20051;-72
2021/11/10 00:02:23;;;;;;;14.95;8.60;;;11.30;99.90;;;;;;2092020;28;20021;-72
2021/11/10 00:03:24;;;;;;;13.90;9.27;;;11.30;99.90;;;;;;2093626;28;20025;-72
2021/11/10 00:04:25;;;;;;;14.38;10.15;;;11.30;99.90;;;;;;2095043;28;20017;-72
2021/11/10 00:05:26;;;;;;;16.25;9.88;;;11.30;99.90;;;;;;2091375;28;20096;-72
2021/11/10 00:06:26;;;;;;;16.38;9.65;;;11.20;99.90;;;;;;2100280;28;20499;-72
2021/11/10 00:07:27;;;;;;;15.18;9.73;;;11.20;99.90;;;;;;2092407;28;20048;-72
2021/11/10 00:08:28;;;;;;;14.38;10.00;;;11.20;99.90;;;;;;2087089;28;20107;-72
2021/11/10 00:09:29;;;;;;;15.00;9.27;;;11.20;99.90;;;;;;2094062;28;20025;-72
2021/11/10 00:10:29;;;;;;;14.00;9.10;;;11.20;99.90;;;;;;2084133;28;20052;-71
2021/11/10 00:11:31;;;;;;;11.98;8.68;;;11.20;99.90;;;;;;2094480;28;20040;-72
2021/11/10 00:12:31;;;;;;;16.57;10.57;;;11.20;99.90;;;;;;2093105;28;20128;-72
2021/11/10 00:13:32;;;;;;;16.40;10.15;;;11.20;99.90;;;;;;2081754;28;20291;-72
2021/11/10 00:14:33;;;;;;;14.85;9.07;;;11.20;99.90;;;;;;2085358;28;20037;-72
2021/11/10 00:15:34;;;;;;;17.70;9.98;;;11.20;99.90;;;;;;2098333;28;20570;-72
2021/11/10 00:16:35;;;;;;;17.20;10.30;;;11.20;99.90;;;;;;2088570;28;20056;-72
2021/11/10 00:17:36;;;;;;;14.27;9.27;;;11.20;99.90;;;;;;2080485;28;20041;-72
2021/11/10 00:18:37;;;;;;;16.48;10.20;;;11.20;99.90;;;;;;2080989;28;20619;-72
2021/11/10 00:19:38;;;;;;;16.77;10.65;;;11.20;99.90;;;;;;2086470;28;20412;-72
2021/11/10 00:20:39;;;;;;;19.30;10.23;;;11.20;99.90;;;;;;2086027;28;20027;-72
2021/11/10 00:21:39;;;;;;;16.75;9.98;;;11.20;99.90;;;;;;2078272;28;20369;-72
2021/11/10 00:22:41;;;;;;;11.82;9.38;;;11.20;99.90;;;;;;2095626;28;20031;-74
2021/11/10 00:23:42;;;;;;;17.13;10.52;;;11.20;99.90;;;;;;2103522;28;20035;-72
2021/11/10 00:24:43;;;;;;;13.85;9.90;;;11.20;99.90;;;;;;2095131;28;20100;-72
2021/11/10 00:25:44;;;;;;;14.38;9.85;;;11.20;99.90;;;;;;2089802;28;20139;-72
2021/11/10 00:26:45;;;;;;;14.63;9.73;;;11.20;99.90;;;;;;2085065;28;20045;-72
2021/11/10 00:27:45;;;;;;;14.55;10.05;;;11.20;99.90;;;;;;2085931;28;20464;-72
2021/11/10 00:28:48;;;;;;;15.73;9.90;;;11.20;99.90;;;;;;2081722;28;20022;-71
2021/11/10 00:29:50;;;;;;;17.77;9.70;;;11.20;99.90;;;;;;2082037;28;20029;-72
2021/11/10 00:30:51;;;;;;;16.92;8.50;;;11.20;99.90;;;;;;2080153;28;20022;-71
2021/11/10 00:31:51;;;;;;;15.23;9.55;;;11.20;99.90;;;;;;2089940;28;20036;-72
2021/11/10 00:32:52;;;;;;;15.50;8.70;;;11.30;99.90;;;;;;2081865;28;20512;-72
2021/11/10 00:33:53;;;;;;;16.77;10.43;;;11.20;99.90;;;;;;2081844;28;20078;-72
2021/11/10 00:34:54;;;;;;;15.75;10.00;;;11.20;99.90;;;;;;2083742;28;20444;-71
2021/11/10 00:35:55;;;;;;;16.63;9.80;;;11.20;99.90;;;;;;2089179;28;20040;-72
2021/11/10 00:36:56;;;;;;;17.13;10.45;;;11.20;99.90;;;;;;2089838;28;20406;-72
2021/11/10 00:37:56;;;;;;;16.90;9.02;;;11.20;99.90;;;;;;2083257;28;20036;-70
2021/11/10 00:39:00;;;;;;;15.30;9.35;;;11.20;99.90;;;;;;2083158;28;20549;-72
2021/11/10 00:40:01;;;;;;;17.98;10.40;;;11.20;99.90;;;;;;2082306;28;20026;-73
2021/11/10 00:41:02;;;;;;;16.88;9.35;;;11.20;99.90;;;;;;2081444;28;20022;-73
2021/11/10 00:42:03;;;;;;;12.65;8.80;;;11.20;99.90;;;;;;2082135;28;20033;-76
2021/11/10 00:43:04;;;;;;;16.90;9.20;;;11.20;99.90;;;;;;2089379;28;20025;-72
2021/11/10 00:44:04;;;;;;;15.68;9.07;;;11.30;99.90;;;;;;2087910;28;20036;-72
2021/11/10 00:45:07;;;;;;;12.50;8.48;;;11.30;99.90;;;;;;2083356;28;20021;-72
2021/11/10 00:46:07;;;;;;;;;;;11.20;99.90;;;;;;2081956;28;20060;-72
2021/11/10 00:47:08;;;;;;;16.35;10.00;;;11.20;99.90;;;;;;2073701;28;20485;-71
2021/11/10 00:48:10;;;;;;;16.42;10.32;;;11.20;99.90;;;;;;2073564;28;20064;-72
2021/11/10 00:49:11;;;;;;;19.85;9.88;;;11.20;99.90;;;;;;2081585;28;20060;-72
2021/11/10 00:50:12;;;;;;;14.20;9.68;;;11.20;99.90;;;;;;2089844;28;20020;-72
2021/11/10 00:51:12;;;;;;;22.13;11.63;;;11.20;99.90;;;;;;2089893;28;20083;-72
2021/11/10 00:52:13;;;;;;;18.88;10.65;;;11.20;99.90;;;;;;2083162;28;20094;-72
2021/11/10 00:53:14;;;;;;;20.17;10.90;;;11.20;99.90;;;;;;2086848;28;20134;-72
2021/11/10 00:54:15;;;;;;;16.27;10.70;;;11.20;99.90;;;;;;2081620;28;20022;-72
2021/11/10 00:55:15;;;;;;;19.50;10.57;;;11.10;99.90;;;;;;2092563;28;20119;-72
2021/11/10 00:56:16;;;;;;;16.60;10.80;;;11.10;99.90;;;;;;2086925;28;20448;-72
2021/11/10 00:57:17;;;;;;;20.35;11.30;;;11.20;99.90;;;;;;2088606;28;20025;-72
2021/11/10 00:58:18;;;;;;;18.88;10.70;;;11.10;99.90;;;;;;2089178;28;20029;-72
2021/11/10 00:59:18;;;;;;;26.35;11.55;;;11.10;99.90;;;;;;2078635;28;20036;-72
2021/11/10 01:00:19;;;;;;;20.55;10.48;;;11.10;99.90;;;;;;2085064;28;20025;-72
2021/11/10 01:01:20;;;;;;;19.55;10.77;;;11.10;99.90;;;;;;2093184;28;20429;-72
2021/11/10 01:02:21;;;;;;;17.33;10.48;;;11.10;99.90;;;;;;2087543;28;20023;-72
2021/11/10 01:03:23;;;;;;;20.83;10.93;;;11.00;99.90;;;;;;2081725;28;20409;-72
2021/11/10 01:04:24;;;;;;;19.15;11.50;;;11.10;99.90;;;;;;2089448;28;20048;-74
2021/11/10 01:05:26;;;;;;;19.80;11.57;;;11.00;99.90;;;;;;2081405;28;20018;-71
2021/11/10 01:06:27;;;;;;;21.17;11.35;;;11.10;99.90;;;;;;2089653;28;20017;-72
2021/11/10 01:07:27;;;;;;;15.55;10.07;;;11.10;99.90;;;;;;2096222;28;20033;-72
2021/11/10 01:08:28;;;;;;;16.15;10.20;;;11.00;99.90;;;;;;2096010;28;20017;-72
2021/11/10 01:09:30;;;;;;;17.80;11.25;;;11.00;99.90;;;;;;2089705;28;20078;-73
2021/11/10 01:10:31;;;;;;;16.60;10.13;;;11.00;99.90;;;;;;2081044;28;20049;-73
2021/11/10 01:11:32;;;;;;;14.95;10.07;;;11.10;99.90;;;;;;2089098;28;20479;-75
2021/11/10 01:12:33;;;;;;;16.33;10.77;;;11.10;99.90;;;;;;2091010;28;20070;-73
2021/11/10 01:13:34;;;;;;;19.85;11.80;;;11.10;99.90;;;;;;2089794;28;20698;-72
2021/11/10 01:14:35;;;;;;;20.40;11.93;;;11.00;99.90;;;;;;2098052;28;20120;-73
2021/11/10 01:15:39;;;;;;;24.10;13.27;;;11.00;99.90;;;;;;2098279;28;20028;-72
2021/11/10 01:16:40;;;;;;;23.15;12.48;;;11.00;99.90;;;;;;2090015;28;20856;-72
2021/11/10 01:17:41;;;;;;;22.58;12.77;;;11.00;99.90;;;;;;2089826;28;20080;-72
2021/11/10 01:18:42;;;;;;;23.10;11.82;;;11.00;99.90;;;;;;2088460;28;20127;-72
2021/11/10 01:19:42;;;;;;;20.23;11.65;;;11.00;99.90;;;;;;2089691;28;20035;-72
2021/11/10 01:20:43;;;;;;;22.70;11.85;;;11.00;99.90;;;;;;2089656;28;20047;-73
2021/11/10 01:21:44;;;;;;;23.40;11.65;;;11.00;99.90;;;;;;2103676;28;20106;-72
2021/11/10 01:22:45;;;;;;;20.42;12.63;;;10.90;99.90;;;;;;2098348;28;20035;-72
2021/11/10 01:23:45;;;;;;;21.55;11.85;;;10.90;99.90;;;;;;2088480;28;20043;-73
2021/11/10 01:24:46;;;;;;;16.35;11.48;;;10.90;99.90;;;;;;2084722;28;20021;-73
2021/11/10 01:25:47;;;;;;;19.30;11.63;;;10.90;99.90;;;;;;2087614;28;20063;-72
2021/11/10 01:26:48;;;;;;;22.05;11.85;;;10.80;99.90;;;;;;2081254;28;20084;-72
2021/11/10 01:27:49;;;;;;;22.02;12.10;;;10.80;99.90;;;;;;2101206;28;20023;-73
2021/11/10 01:28:49;;;;;;;19.90;11.75;;;10.80;99.90;;;;;;2097821;28;20024;-72
2021/11/10 01:29:50;;;;;;;23.02;12.15;;;10.80;99.90;;;;;;2088393;28;20017;-72
2021/11/10 01:30:51;;;;;;;18.42;10.77;;;10.70;99.90;;;;;;2089411;28;20103;-73
2021/11/10 01:31:52;;;;;;;22.30;11.27;;;10.70;99.90;;;;;;2086457;28;20514;-72
2021/11/10 01:32:53;;;;;;;18.77;10.48;;;10.70;99.90;;;;;;2089777;28;20025;-72
2021/11/10 01:33:54;;;;;;;25.98;11.55;;;10.70;99.90;;;;;;2090609;28;20146;-72
2021/11/10 01:34:54;;;;;;;20.23;11.75;;;10.70;99.90;;;;;;2086298;28;20057;-72
2021/11/10 01:35:55;;;;;;;22.33;11.27;;;10.60;99.90;;;;;;2077118;28;20613;-74
2021/11/10 01:36:56;;;;;;;18.13;11.55;;;10.60;99.90;;;;;;2081383;28;20064;-73
2021/11/10 01:37:56;;;;;;;21.13;12.68;;;10.60;99.90;;;;;;2088920;28;20685;-73
2021/11/10 01:38:57;;;;;;;21.58;11.88;;;10.50;99.90;;;;;;2086742;28;20021;-72
2021/11/10 01:39:58;;;;;;;22.02;11.80;;;10.40;99.90;;;;;;2085601;28;20022;-72
2021/11/10 01:40:59;;;;;;;19.67;12.48;;;10.40;99.90;;;;;;2084034;28;20029;-74
2021/11/10 01:42:04;;;;;;;22.52;11.45;;;10.30;99.90;;;;;;2089478;28;20483;-73
2021/11/10 01:43:17;;;;;;;21.45;10.82;;;10.30;99.90;;;;;;2084419;28;20124;-72
2021/11/10 01:44:23;;;;;;;;;;;10.20;99.90;;;;;;2083103;28;20105;-72
2021/11/10 01:45:24;;;;;;;16.52;9.38;;;10.10;99.90;;;;;;2081920;28;19905;-76
2021/11/10 01:46:26;;;;;;;19.15;10.27;;;10.00;99.90;;;;;;2076044;28;20034;-76
2021/11/10 01:47:27;;;;;;;18.95;10.30;;;9.90;99.90;;;;;;2083751;28;20028;-81
2021/11/10 01:48:27;;;;;;;19.67;10.70;;;9.80;99.90;;;;;;2083436;28;20022;-75
2021/11/10 01:49:28;;;;;;;18.15;10.63;;;9.70;99.90;;;;;;2086109;28;20639;-75
2021/11/10 01:50:29;;;;;;;18.92;10.23;;;9.70;99.90;;;;;;2092576;28;20036;-74
2021/11/10 01:51:30;;;;;;;16.08;10.02;;;9.60;99.90;;;;;;2091814;28;20071;-78
2021/11/10 01:52:31;;;;;;;15.95;9.80;;;9.60;99.90;;;;;;2083303;28;20080;-75
2021/11/10 01:53:32;;;;;;;16.02;10.32;;;9.50;99.90;;;;;;2090867;28;20488;-75
2021/11/10 01:54:34;;;;;;;18.15;10.93;;;9.50;99.90;;;;;;2096807;28;20527;-74
2021/11/10 01:55:36;;;;;;;17.20;10.18;;;9.40;99.90;;;;;;2079745;28;20029;-72
2021/11/10 01:56:38;;;;;;;14.70;10.65;;;9.40;99.90;;;;;;2081362;28;20033;-72
2021/11/10 01:57:39;;;;;;;14.50;9.88;;;9.40;99.90;;;;;;2083804;28;20033;-72
2021/11/10 01:58:40;;;;;;;17.40;10.40;;;9.30;99.90;;;;;;2090289;28;20021;-74
2021/11/10 01:59:44;;;;;;;17.95;11.43;;;9.30;99.90;;;;;;2093316;28;20039;-73
2021/11/10 02:00:45;;;;;;;15.43;10.25;;;9.30;99.90;;;;;;2098969;28;20032;-76
2021/11/10 02:01:46;;;;;;;16.67;10.45;;;9.20;99.90;;;;;;2100011;28;20028;-72
2021/11/10 02:02:48;;;;;;;12.18;9.57;;;9.20;99.90;;;;;;2089402;28;20508;-72
2021/11/10 02:03:49;;;;;;;14.27;9.38;;;9.10;99.90;;;;;;2085208;28;20030;-71
2021/11/10 02:04:51;;;;;;;16.58;10.35;;;9.10;99.90;;;;;;2088502;28;20480;-71
2021/11/10 02:05:52;;;;;;;13.30;10.00;;;9.10;99.90;;;;;;2086524;28;20033;-73
2021/11/10 02:06:53;;;;;;;20.13;10.15;;;9.10;99.90;;;;;;2081113;28;20300;-72
2021/11/10 02:07:55;;;;;;;15.90;9.35;;;9.10;99.90;;;;;;2089653;28;20024;-72
2021/11/10 02:08:55;;;;;;;11.40;9.27;;;9.10;99.90;;;;;;2097020;28;20515;-72
2021/11/10 02:09:56;;;;;;;11.75;9.55;;;9.10;99.90;;;;;;2072036;28;20038;-72
2021/11/10 02:10:57;;;;;;;13.65;9.48;;;9.10;99.90;;;;;;2091781;28;20095;-72
2021/11/10 02:11:59;;;;;;;15.43;9.52;;;9.20;99.90;;;;;;2093380;28;20021;-72
2021/11/10 02:13:00;;;;;;;;;;;9.20;99.90;;;;;;2094876;28;20078;-72
2021/11/10 02:14:01;;;;;;;13.40;9.27;;;9.10;99.90;;;;;;2105249;28;19954;-73
2021/11/10 02:15:08;;;;;;;15.68;8.93;;;9.20;99.90;;;;;;2097065;28;20111;-72
2021/11/10 02:16:08;;;;;;;12.07;8.65;;;9.20;99.90;;;;;;2089263;28;20507;-73
2021/11/10 02:17:15;;;;;;;18.75;9.50;;;9.20;99.90;;;;;;2089474;28;20027;-72
2021/11/10 02:18:16;;;;;;;15.48;9.10;;;9.20;99.90;;;;;;2087172;28;20501;-73
2021/11/10 02:19:18;;;;;;;14.13;9.15;;;9.20;99.90;;;;;;2080774;28;20024;-73
2021/11/10 02:20:19;;;;;;;14.45;9.32;;;9.20;99.90;;;;;;2084062;28;20028;-72
2021/11/10 02:21:21;;;;;;;14.57;10.02;;;9.10;99.90;;;;;;2089121;28;20087;-73
2021/11/10 02:22:22;;;;;;;12.40;9.00;;;9.10;99.90;;;;;;2081195;28;20026;-72
2021/11/10 02:23:23;;;;;;;16.13;9.77;;;9.20;99.90;;;;;;2089078;28;20468;-72
2021/11/10 02:24:26;;;;;;;13.45;9.48;;;9.20;99.90;;;;;;2088916;28;20024;-73
2021/11/10 02:25:28;;;;;;;12.35;8.50;;;9.20;99.90;;;;;;2086408;28;20021;-72
2021/11/10 02:26:30;;;;;;;14.25;9.70;;;9.20;99.90;;;;;;2089323;28;20025;-73
2021/11/10 02:27:35;;;;;;;17.15;10.63;;;9.30;99.90;;;;;;2089063;28;20025;-72
2021/11/10 02:28:38;;;;;;;15.57;9.77;;;9.30;99.90;;;;;;2088617;28;20021;-73
2021/11/10 02:29:38;;;;;;;18.58;9.55;;;9.30;99.90;;;;;;2072881;28;20036;-73
2021/11/10 02:30:39;;;;;;;16.35;9.85;;;9.30;99.90;;;;;;2087430;28;20596;-72
2021/11/10 02:31:41;;;;;;;16.88;9.43;;;9.30;99.90;;;;;;2099581;28;20031;-73
2021/11/10 02:32:48;;;;;;;19.20;10.88;;;9.40;99.90;;;;;;2097273;28;20054;-72
2021/11/10 02:33:49;;;;;;;16.58;9.98;;;9.40;99.90;;;;;;2089996;28;20024;-73
2021/11/10 02:34:50;;;;;;;13.60;9.75;;;9.40;99.90;;;;;;2089205;28;20029;-73
2021/11/10 02:35:58;;;;;;;18.25;10.73;;;9.40;99.90;;;;;;2083155;28;20030;-73
2021/11/10 02:36:59;;;;;;;13.50;9.90;;;9.40;99.90;;;;;;2085449;28;20497;-72
2021/11/10 02:38:06;;;;;;;15.43;10.38;;;9.30;99.90;;;;;;2080666;28;20041;-72
2021/11/10 02:39:11;;;;;;;14.32;10.38;;;9.30;99.90;;;;;;2090067;28;20047;-72
2021/11/10 02:40:12;;;;;;;14.00;9.77;;;9.30;99.90;;;;;;2087090;28;20020;-72
2021/11/10 02:41:13;;;;;;;14.90;9.75;;;9.30;99.90;;;;;;2076136;28;20732;-73
2021/11/10 02:42:16;;;;;;;16.42;10.63;;;9.30;99.90;;;;;;2081187;28;20068;-73
2021/11/10 02:43:17;;;;;;;16.35;10.23;;;9.30;99.90;;;;;;2089585;28;20480;-73
2021/11/10 02:44:19;;;;;;;12.85;9.90;;;9.30;99.90;;;;;;2086949;28;20021;-72
2021/11/10 02:45:20;;;;;;;16.58;11.13;;;9.30;99.90;;;;;;2082225;28;20548;-72
2021/11/10 02:46:23;;;;;;;16.35;10.55;;;9.30;99.90;;;;;;2089020;28;20484;-73
2021/11/10 02:47:23;;;;;;;;;;;9.40;99.90;;;;;;2089493;28;20657;-72
2021/11/10 02:48:24;;;;;;;16.10;10.13;;;9.40;99.90;;;;;;2079855;28;19963;-72
2021/11/10 02:49:25;;;;;;;16.88;10.45;;;9.40;99.90;;;;;;2084742;28;20424;-74
2021/11/10 02:50:30;;;;;;;16.38;10.93;;;9.40;99.90;;;;;;2091203;28;20048;-77
2021/11/10 02:51:31;;;;;;;20.73;12.57;;;9.50;99.90;;;;;;2089280;28;20044;-72
2021/11/10 02:52:32;;;;;;;19.30;12.93;;;9.60;99.90;;;;;;2089086;28;20056;-71
2021/11/10 02:53:33;;;;;;;22.67;13.80;;;9.60;99.90;;;;;;2089117;28;20021;-72
2021/11/10 02:54:37;;;;;;;19.92;13.52;;;9.70;99.90;;;;;;2089184;28;20548;-72
2021/11/10 02:55:38;;;;;;;19.23;13.75;;;9.70;99.90;;;;;;2090403;28;20062;-73
2021/11/10 02:56:39;;;;;;;22.52;14.32;;;9.80;99.90;;;;;;2088571;28;20029;-72
2021/11/10 02:57:39;;;;;;;23.30;14.40;;;9.70;99.90;;;;;;2081196;28;20022;-73
2021/11/10 02:58:40;;;;;;;22.48;13.90;;;9.70;99.90;;;;;;2093386;28;20056;-72
2021/11/10 02:59:41;;;;;;;23.92;14.10;;;9.70;99.90;;;;;;2088944;28;20027;-71
2021/11/10 03:00:41;;;;;;;25.05;14.18;;;9.80;99.90;;;;;;2088897;28;20352;-72
2021/11/10 03:01:42;;;;;;;26.30;13.30;;;9.70;99.90;;;;;;2088717;28;20053;-73
2021/11/10 03:02:43;;;;;;;28.50;13.40;;;9.70;99.90;;;;;;2089027;28;20053;-72
2021/11/10 03:03:44;;;;;;;26.95;12.65;;;9.60;99.90;;;;;;2097447;28;20452;-71
2021/11/10 03:04:46;;;;;;;23.38;12.55;;;9.60;99.90;;;;;;2095742;28;20031;-72
2021/11/10 03:05:47;;;;;;;24.45;13.02;;;9.50;99.90;;;;;;2092760;28;20025;-71
2021/11/10 03:06:48;;;;;;;29.85;12.25;;;9.50;99.90;;;;;;2093731;28;20036;-72
2021/11/10 03:07:49;;;;;;;27.58;12.23;;;9.50;99.90;;;;;;2080881;28;20049;-71
2021/11/10 03:08:50;;;;;;;26.40;11.47;;;9.50;99.90;;;;;;2080793;28;20033;-72
2021/11/10 03:09:51;;;;;;;28.83;11.20;;;9.40;99.90;;;;;;2089028;28;20298;-72
2021/11/10 03:10:53;;;;;;;29.48;11.68;;;9.40;99.90;;;;;;2088421;28;20104;-73
2021/11/10 03:11:57;;;;;;;24.10;10.63;;;9.40;99.90;;;;;;2088089;28;20846;-72
2021/11/10 03:12:59;;;;;;;24.52;10.88;;;9.30;99.90;;;;;;2087703;28;20683;-72
2021/11/10 03:13:59;;;;;;;23.60;9.98;;;9.30;99.90;;;;;;2097064;28;20054;-72
2021/11/10 03:15:01;;;;;;;28.33;11.35;;;9.30;99.90;;;;;;2097011;28;20078;-72
2021/11/10 03:16:02;;;;;;;32.13;10.45;;;9.30;99.90;;;;;;2088638;28;20025;-71
2021/11/10 03:17:05;;;;;;;24.70;10.00;;;9.30;99.90;;;;;;2097425;28;20036;-72
2021/11/10 03:18:06;;;;;;;29.30;10.48;;;9.20;99.90;;;;;;2089140;28;20024;-72
2021/11/10 03:19:07;;;;;;;24.13;9.73;;;9.20;99.90;;;;;;2087373;28;20029;-72
2021/11/10 03:20:08;;;;;;;28.35;9.48;;;9.20;99.90;;;;;;2096915;28;20025;-72
2021/11/10 03:21:09;;;;;;;24.23;9.70;;;9.20;99.90;;;;;;2097942;28;20024;-72
2021/11/10 03:22:13;;;;;;;22.70;9.30;;;9.20;99.90;;;;;;2097916;28;20111;-73
2021/11/10 03:23:13;;;;;;;27.25;9.30;;;9.20;99.90;;;;;;2097176;28;20028;-73
2021/11/10 03:24:15;;;;;;;23.30;9.02;;;9.20;99.90;;;;;;2088661;28;20028;-72
2021/11/10 03:25:16;;;;;;;32.42;9.32;;;9.20;99.90;;;;;;2080658;28;20022;-71
2021/11/10 03:26:20;;;;;;;26.42;10.27;;;9.20;99.90;;;;;;2086844;28;20060;-72
2021/11/10 03:27:20;;;;;;;36.78;8.63;;;9.20;99.90;;;;;;2093830;28;20016;-71
2021/11/10 03:28:21;;;;;;;33.03;9.93;;;9.20;99.90;;;;;;2096855;28;20361;-71
2021/11/10 03:29:22;;;;;;;30.23;8.25;;;9.20;99.90;;;;;;2088638;28;20524;-73
2021/11/10 03:30:23;;;;;;;21.48;7.18;;;9.20;99.90;;;;;;2097239;28;20104;-71
2021/11/10 03:31:24;;;;;;;24.33;7.30;;;9.10;99.90;;;;;;2096903;28;20500;-70
2021/11/10 03:32:25;;;;;;;27.90;8.27;;;9.10;99.90;;;;;;2088869;28;20119;-72
2021/11/10 03:33:26;;;;;;;29.58;7.50;;;9.10;99.90;;;;;;2087544;28;20017;-72
2021/11/10 03:34:26;;;;;;;33.90;7.55;;;9.10;99.90;;;;;;2088476;28;20096;-72
2021/11/10 03:35:27;;;;;;;23.92;7.72;;;9.10;99.90;;;;;;2096118;28;20021;-73
2021/11/10 03:36:28;;;;;;;28.63;8.52;;;9.10;99.90;;;;;;2091141;28;20121;-72
2021/11/10 03:37:29;;;;;;;27.10;7.55;;;9.10;99.90;;;;;;2085131;28;20032;-72
2021/11/10 03:38:30;;;;;;;28.63;7.90;;;9.10;99.90;;;;;;2085839;28;20025;-73
2021/11/10 03:39:30;;;;;;;29.17;8.13;;;9.10;99.90;;;;;;2090294;28;20739;-74
2021/11/10 03:40:31;;;;;;;26.45;7.63;;;9.10;99.90;;;;;;2090785;28;20033;-72
2021/11/10 03:41:32;;;;;;;25.25;7.97;;;9.10;99.90;;;;;;2087609;28;20056;-72
2021/11/10 03:42:33;;;;;;;21.63;7.82;;;9.10;99.90;;;;;;2093259;28;20415;-72
2021/11/10 03:43:35;;;;;;;26.17;7.88;;;9.10;99.90;;;;;;2094309;28;20048;-72
2021/11/10 03:44:36;;;;;;;24.67;8.07;;;9.00;99.90;;;;;;2097024;28;20025;-71
2021/11/10 03:45:36;;;;;;;24.55;8.40;;;9.10;99.90;;;;;;2091109;28;20124;-71
2021/11/10 03:46:38;;;;;;;26.67;9.30;;;9.10;99.90;;;;;;2087670;28;20057;-73
2021/11/10 03:47:38;;;;;;;33.17;8.27;;;9.00;99.90;;;;;;2097073;28;20154;-72
2021/11/10 03:48:40;;;;;;;24.88;8.27;;;9.10;99.90;;;;;;2094331;28;20086;-71
2021/11/10 03:49:41;;;;;;;29.52;8.52;;;9.00;99.90;;;;;;2097421;28;20020;-72
2021/11/10 03:50:42;;;;;;;30.60;8.20;;;9.00;99.90;;;;;;2093275;28;20472;-73
2021/11/10 03:51:43;;;;;;;37.03;9.15;;;9.10;99.90;;;;;;2098660;28;20112;-72
2021/11/10 03:52:43;;;;;;;33.50;8.48;;;9.00;99.90;;;;;;2098708;28;20028;-71
2021/11/10 03:53:45;;;;;;;28.00;7.93;;;9.00;99.90;;;;;;2099226;28;20032;-72
2021/11/10 03:54:47;;;;;;;32.17;8.10;;;9.10;99.90;;;;;;2096734;28;20039;-72
2021/11/10 03:55:47;;;;;;;30.85;7.75;;;9.10;99.90;;;;;;2088476;28;20040;-71
2021/11/10 03:56:48;;;;;;;29.52;8.52;;;9.00;99.90;;;;;;2091556;28;20039;-71
2021/11/10 03:57:49;;;;;;;29.67;8.27;;;9.10;99.90;;;;;;2098027;28;20116;-72
2021/11/10 03:58:50;;;;;;;26.20;7.85;;;9.00;99.90;;;;;;2095957;28;20483;-72
2021/11/10 03:59:51;;;;;;;24.40;8.07;;;9.10;99.90;;;;;;2090189;28;20029;-72
2021/11/10 04:00:52;;;;;;;33.08;9.15;;;9.00;99.90;;;;;;2090366;28;20028;-72
2021/11/10 04:01:52;;;;;;;23.90;7.65;;;9.00;99.90;;;;;;2095714;28;20514;-71
2021/11/10 04:02:53;;;;;;;28.10;7.95;;;9.00;99.90;;;;;;2090012;28;20079;-72
2021/11/10 04:03:54;;;;;;;28.55;7.22;;;9.00;99.90;;;;;;2098361;28;20063;-72
2021/11/10 04:04:55;;;;;;;30.55;8.32;;;9.00;99.90;;;;;;2098191;28;20468;-72
2021/11/10 04:05:55;;;;;;;26.98;8.90;;;9.00;99.90;;;;;;2090337;28;20027;-72
2021/11/10 04:06:56;;;;;;;23.80;7.40;;;9.00;99.90;;;;;;2088421;28;20500;-72
2021/11/10 04:07:57;;;;;;;27.95;8.07;;;9.00;99.90;;;;;;2090418;28;20017;-73
2021/11/10 04:08:58;;;;;;;21.13;7.50;;;9.00;99.90;;;;;;2098527;28;20703;-71
2021/11/10 04:09:59;;;;;;;29.48;7.95;;;9.00;99.90;;;;;;2098188;28;20032;-71
2021/11/10 04:11:00;;;;;;;28.98;8.25;;;9.00;99.90;;;;;;2090270;28;20037;-72
2021/11/10 04:12:00;;;;;;;30.23;7.65;;;9.00;99.90;;;;;;2092910;28;20024;-72
2021/11/10 04:13:01;;;;;;;36.55;7.80;;;9.00;99.90;;;;;;2084634;28;20518;-71
2021/11/10 04:14:03;;;;;;;24.75;6.95;;;9.00;99.90;;;;;;2090110;28;20063;-71
2021/11/10 04:15:04;;;;;;;28.70;8.00;;;9.00;99.90;;;;;;2089960;28;20544;-72
2021/11/10 04:16:05;;;;;;;30.25;7.47;;;9.00;99.90;;;;;;2090195;28;20543;-73
2021/11/10 04:17:09;;;;;;;28.02;7.32;;;9.00;99.90;;;;;;2093084;28;20029;-72
2021/11/10 04:18:09;;;;;;;26.63;7.05;;;9.00;99.90;;;;;;2094724;28;20026;-72
2021/11/10 04:19:11;;;;;;;27.40;8.05;;;9.00;99.90;;;;;;2098430;28;20043;-72
2021/11/10 04:20:11;;;;;;;27.65;7.63;;;9.00;99.90;;;;;;2097069;28;20078;-72
2021/11/10 04:21:12;;;;;;;36.50;8.40;;;9.00;99.90;;;;;;2090115;28;20504;-73
2021/11/10 04:22:13;;;;;;;27.83;8.25;;;9.00;99.90;;;;;;2094595;28;20025;-72
2021/11/10 04:23:14;;;;;;;24.15;6.90;;;9.00;99.90;;;;;;2090201;28;20060;-71
2021/11/10 04:24:15;;;;;;;25.52;7.93;;;8.90;99.90;;;;;;2090073;28;20021;-72
2021/11/10 04:25:15;;;;;;;24.55;7.35;;;8.90;99.90;;;;;;2089835;28;20079;-73
2021/11/10 04:26:17;;;;;;;28.40;6.80;;;8.90;99.90;;;;;;2090070;28;20062;-71
2021/11/10 04:27:19;;;;;;;25.63;7.95;;;8.90;99.90;;;;;;2090297;28;20028;-72
2021/11/10 04:28:20;;;;;;;27.63;7.20;;;8.90;99.90;;;;;;2091728;28;20025;-73
2021/11/10 04:29:20;;;;;;;32.40;8.73;;;8.90;99.90;;;;;;2097215;28;20502;-73
2021/11/10 04:30:21;;;;;;;24.52;6.80;;;8.90;99.90;;;;;;2095171;28;20068;-73
2021/11/10 04:31:23;;;;;;;26.73;7.28;;;8.90;99.90;;;;;;2097410;28;20032;-72
2021/11/10 04:32:24;;;;;;;27.42;7.93;;;8.90;99.90;;;;;;2095666;28;20042;-72
2021/11/10 04:33:24;;;;;;;30.83;7.45;;;8.90;99.90;;;;;;2098285;28;20044;-71
2021/11/10 04:34:25;;;;;;;26.58;6.75;;;8.90;99.90;;;;;;2098204;28;20115;-71
2021/11/10 04:35:26;;;;;;;24.33;6.82;;;8.90;99.90;;;;;;2089607;28;20493;-72
2021/11/10 04:36:30;;;;;;;33.70;7.22;;;8.90;99.90;;;;;;2089670;28;20091;-72
2021/11/10 04:37:30;;;;;;;26.25;6.20;;;8.90;99.90;;;;;;2085270;28;20036;-71
2021/11/10 04:38:32;;;;;;;29.17;7.05;;;8.90;99.90;;;;;;2094064;28;20460;-72
2021/11/10 04:39:33;;;;;;;29.17;5.70;;;8.90;99.90;;;;;;2092813;28;20377;-72
2021/11/10 04:40:34;;;;;;;28.40;6.50;;;8.90;99.90;;;;;;2096828;28;20151;-73
2021/11/10 04:41:34;;;;;;;24.60;6.60;;;8.90;99.90;;;;;;2090160;28;20033;-72
2021/11/10 04:42:35;;;;;;;29.63;7.40;;;8.90;99.90;;;;;;2098576;28;20027;-72
2021/11/10 04:43:37;;;;;;;29.67;7.90;;;8.90;99.90;;;;;;2098112;28;20028;-72
2021/11/10 04:44:37;;;;;;;24.83;7.13;;;8.90;99.90;;;;;;2093582;28;20110;-72
2021/11/10 04:45:39;;;;;;;27.33;6.43;;;8.90;99.90;;;;;;2088180;28;20033;-72
2021/11/10 04:46:40;;;;;;;32.63;6.88;;;8.90;99.90;;;;;;2089862;28;20021;-74
2021/11/10 04:47:41;;;;;;;32.35;6.90;;;8.80;99.90;;;;;;2089914;28;20036;-71
2021/11/10 04:48:42;;;;;;;27.52;6.88;;;8.80;99.90;;;;;;2097864;28;20040;-72
2021/11/10 04:49:43;;;;;;;35.47;7.18;;;8.80;99.90;;;;;;2095170;28;20032;-71
2021/11/10 04:50:46;;;;;;;28.05;6.70;;;8.80;99.90;;;;;;2092188;28;20542;-72
2021/11/10 04:51:46;;;;;;;26.20;6.68;;;8.80;99.90;;;;;;2098663;28;20025;-71
2021/11/10 04:52:47;;;;;;;38.13;7.88;;;8.80;99.90;;;;;;2098203;28;20467;-72
2021/11/10 04:53:48;;;;;;;28.48;6.70;;;8.80;99.90;;;;;;2089823;28;20649;-71
2021/11/10 04:54:50;;;;;;;25.48;7.18;;;8.80;99.90;;;;;;2097919;28;20169;-72
2021/11/10 04:55:50;;;;;;;19.02;6.28;;;8.80;99.90;;;;;;2094926;28;20052;-72
2021/11/10 04:56:51;;;;;;;23.95;5.43;;;8.70;99.90;;;;;;2102441;28;20028;-71
2021/11/10 04:57:52;;;;;;;23.70;6.18;;;8.80;99.90;;;;;;2098086;28;20124;-72
2021/11/10 04:58:53;;;;;;;26.42;6.90;;;8.80;99.90;;;;;;2093769;28;20581;-72
2021/11/10 04:59:53;;;;;;;28.13;6.25;;;8.80;99.90;;;;;;2088577;28;20021;-71
2021/11/10 05:00:54;;;;;;;20.83;6.43;;;8.80;99.90;;;;;;2089426;28;20020;-72
2021/11/10 05:03:05;;;;;;;26.17;6.70;;;8.80;99.90;;;;;;2098939;28;20027;-71
2021/11/10 05:04:06;;;;;;;20.27;6.53;;;8.90;99.90;;;;;;2097113;28;20388;-72
2021/11/10 05:05:07;;;;;;;32.38;6.75;;;8.90;99.90;;;;;;2090807;28;20690;-73
2021/11/10 05:06:08;;;;;;;18.60;5.88;;;8.90;99.90;;;;;;2089733;28;20027;-71
2021/11/10 05:07:12;;;;;;;23.27;5.60;;;8.90;99.90;;;;;;2082136;28;20029;-72
2021/11/10 05:08:13;;;;;;;30.15;6.15;;;8.90;99.90;;;;;;2089835;28;20021;-72
2021/11/10 05:09:14;;;;;;;29.05;6.20;;;8.90;99.90;;;;;;2092983;28;20662;-72
2021/11/10 05:10:16;;;;;;;27.08;6.30;;;9.00;99.90;;;;;;2097783;28;20739;-72
2021/11/10 05:11:17;;;;;;;26.02;6.53;;;9.00;99.90;;;;;;2081747;28;20381;-71
2021/11/10 05:12:18;;;;;;;24.77;6.07;;;9.00;99.90;;;;;;2089615;28;20035;-73
2021/11/10 05:13:19;;;;;;;23.42;6.25;;;9.00;99.90;;;;;;2092428;28;20032;-72
2021/11/10 05:14:20;;;;;;;23.20;6.00;;;9.00;99.90;;;;;;2092845;28;20066;-72
2021/11/10 05:15:21;;;;;;;29.67;6.35;;;9.00;99.90;;;;;;2096280;28;20024;-72
2021/11/10 05:16:22;;;;;;;21.67;5.45;;;9.10;99.90;;;;;;2096322;28;20060;-72
2021/11/10 05:17:24;;;;;;;25.10;6.50;;;9.10;99.90;;;;;;2094019;28;20083;-71